Time;durP1;ratioP1;P1;durP2;ratioP2;P2;SDS_P1;SDS_P2;PMS_P1;PMS_P2;Temp;Humidity;BMP_temperature;BMP_pressure;BME280_temperature;BME280_humidity;BME280_pressure;Samples;Min_cycle;Max_cycle;Signal;HPM_P1;HPM_P2
2022/01/14 00:01:46;;;;;;;20.60;12.53;;;;;;;;;;5066225;28;20502;-78
2022/01/14 00:04:14;;;;;;;24.30;11.37;;;;;;;;;;5067882;28;21176;-79
2022/01/14 00:06:40;;;;;;;17.17;9.97;;;;;;;;;;5067670;28;20618;-78
2022/01/14 00:09:09;;;;;;;21.00;10.87;;;;;;;;;;5067863;28;20440;-78
2022/01/14 00:11:36;;;;;;;19.37;10.57;;;;;;;;;;5066677;28;20413;-78
2022/01/14 00:16:32;;;;;;;17.30;8.93;;;;;;;;;;5072024;28;20448;-78
2022/01/14 00:18:58;;;;;;;17.17;10.83;;;;;;;;;;5070557;28;21366;-77
2022/01/14 00:21:25;;;;;;;18.80;9.77;;;;;;;;;;5073782;28;21332;-78
2022/01/14 00:24:03;;;;;;;16.70;9.47;;;;;;;;;;5072495;28;20459;-78
2022/01/14 00:32:04;;;;;;;15.80;8.90;;;;;;;;;;5072967;28;20450;-78
2022/01/14 00:34:30;;;;;;;15.63;8.90;;;;;;;;;;5084307;28;21276;-78
2022/01/14 00:36:58;;;;;;;19.33;9.37;;;;;;;;;;5070305;28;21127;-78
2022/01/14 00:39:24;;;;;;;16.90;8.93;;;;;;;;;;5069419;28;21383;-78
2022/01/14 00:41:50;;;;;;;14.70;8.40;;;;;;;;;;5073701;28;20420;-78
2022/01/14 00:44:17;;;;;;;14.03;7.70;;;;;;;;;;5072457;28;20425;-78
2022/01/14 00:46:44;;;;;;;15.93;8.07;;;;;;;;;;5074475;28;20410;-78
2022/01/14 00:49:10;;;;;;;17.83;8.37;;;;;;;;;;5074233;28;20449;-78
2022/01/14 00:51:37;;;;;;;13.70;8.20;;;;;;;;;;5073921;28;20424;-78
2022/01/14 00:54:04;;;;;;;13.30;7.80;;;;;;;;;;5066064;28;21083;-78
2022/01/14 00:56:45;;;;;;;13.43;7.90;;;;;;;;;;5068901;28;20424;-78
2022/01/14 00:59:16;;;;;;;12.30;7.73;;;;;;;;;;5074277;28;20429;-78
2022/01/14 01:01:45;;;;;;;13.27;7.73;;;;;;;;;;5074201;28;21383;-78
2022/01/14 01:04:13;;;;;;;11.80;7.43;;;;;;;;;;5071975;28;20432;-78
2022/01/14 01:06:44;;;;;;;12.67;8.03;;;;;;;;;;5073850;28;20414;-78
2022/01/14 01:09:11;;;;;;;15.17;7.93;;;;;;;;;;5068109;28;20460;-78
2022/01/14 01:11:47;;;;;;;12.40;7.17;;;;;;;;;;5074779;28;20413;-78
2022/01/14 01:14:28;;;;;;;14.13;7.43;;;;;;;;;;5070361;28;20432;-78
2022/01/14 01:16:54;;;;;;;12.57;7.17;;;;;;;;;;5071092;28;20437;-77
2022/01/14 01:19:21;;;;;;;13.70;7.83;;;;;;;;;;5069405;28;20420;-78
2022/01/14 01:21:47;;;;;;;12.93;7.93;;;;;;;;;;5072291;28;20426;-78
2022/01/14 01:24:15;;;;;;;14.60;7.23;;;;;;;;;;5072279;28;21454;-78
2022/01/14 01:26:42;;;;;;;11.07;6.67;;;;;;;;;;5073031;28;20428;-78
2022/01/14 01:31:39;;;;;;;15.30;7.50;;;;;;;;;;5072405;28;20432;-77
2022/01/14 01:34:13;;;;;;;12.70;7.20;;;;;;;;;;5067625;28;20421;-78
2022/01/14 01:36:40;;;;;;;12.57;6.93;;;;;;;;;;5071297;28;20432;-77
2022/01/14 01:39:08;;;;;;;12.47;7.03;;;;;;;;;;5070322;28;20510;-78
2022/01/14 01:41:38;;;;;;;12.30;7.67;;;;;;;;;;5069977;28;20429;-78
2022/01/14 01:44:06;;;;;;;12.50;7.03;;;;;;;;;;5074367;28;21269;-78
2022/01/14 01:46:32;;;;;;;14.40;7.20;;;;;;;;;;5077280;28;20438;-78
2022/01/14 01:48:58;;;;;;;13.67;6.67;;;;;;;;;;5068448;28;20469;-78
2022/01/14 01:51:24;;;;;;;13.07;7.63;;;;;;;;;;5072876;28;20420;-78
2022/01/14 01:53:50;;;;;;;10.70;6.37;;;;;;;;;;5070905;28;20501;-78
2022/01/14 01:56:17;;;;;;;9.77;5.87;;;;;;;;;;5071930;28;21376;-78
2022/01/14 01:58:43;;;;;;;11.10;6.20;;;;;;;;;;5074410;28;20425;-77
2022/01/14 02:01:11;;;;;;;13.33;6.57;;;;;;;;;;5073042;28;20531;-79
2022/01/14 02:03:38;;;;;;;9.93;6.10;;;;;;;;;;5069244;28;20425;-79
2022/01/14 02:06:04;;;;;;;12.33;6.83;;;;;;;;;;5071584;28;20420;-79
2022/01/14 02:08:30;;;;;;;9.90;6.17;;;;;;;;;;5074551;28;20469;-78
2022/01/14 02:10:57;;;;;;;11.33;6.70;;;;;;;;;;5074536;28;20567;-78
2022/01/14 02:13:23;;;;;;;10.43;6.37;;;;;;;;;;5069695;28;20413;-78
2022/01/14 02:16:17;;;;;;;11.00;6.80;;;;;;;;;;5071437;28;20459;-79
2022/01/14 02:26:52;;;;;;;9.83;6.17;;;;;;;;;;5073675;28;20432;-79
2022/01/14 02:29:18;;;;;;;10.63;6.80;;;;;;;;;;5071830;28;20884;-78
2022/01/14 02:31:45;;;;;;;12.67;6.20;;;;;;;;;;5071843;28;21268;-78
2022/01/14 02:34:11;;;;;;;10.70;6.73;;;;;;;;;;5074111;28;20518;-79
2022/01/14 02:36:40;;;;;;;12.83;6.73;;;;;;;;;;5069914;28;20432;-79
2022/01/14 02:39:06;;;;;;;10.70;6.53;;;;;;;;;;5073215;28;20611;-79
2022/01/14 02:41:34;;;;;;;16.30;6.63;;;;;;;;;;5073645;28;20492;-79
2022/01/14 02:44:04;;;;;;;11.73;6.47;;;;;;;;;;5066386;28;20433;-79
2022/01/14 02:46:37;;;;;;;11.47;6.77;;;;;;;;;;5066396;28;20647;-79
2022/01/14 02:49:03;;;;;;;9.43;6.60;;;;;;;;;;5073049;28;20448;-79
2022/01/14 02:51:29;;;;;;;10.70;6.40;;;;;;;;;;5073049;28;21100;-79
2022/01/14 02:53:58;;;;;;;12.67;6.47;;;;;;;;;;5069342;28;22357;-79
2022/01/14 02:56:29;;;;;;;11.03;6.60;;;;;;;;;;5069300;28;20472;-78
2022/01/14 02:58:56;;;;;;;11.50;6.80;;;;;;;;;;5071181;28;20424;-78
2022/01/14 03:01:24;;;;;;;11.60;6.37;;;;;;;;;;5084743;28;21204;-78
2022/01/14 03:03:54;;;;;;;12.63;6.47;;;;;;;;;;5065701;28;20489;-78
2022/01/14 03:06:20;;;;;;;9.37;6.23;;;;;;;;;;5070400;28;20409;-78
2022/01/14 03:08:46;;;;;;;10.47;6.80;;;;;;;;;;5083136;28;21444;-78
2022/01/14 03:11:15;;;;;;;15.30;7.60;;;;;;;;;;5070554;28;21085;-78
2022/01/14 03:13:41;;;;;;;11.63;6.83;;;;;;;;;;5072105;28;20433;-78
2022/01/14 03:16:07;;;;;;;13.03;6.63;;;;;;;;;;5062795;28;20514;-78
2022/01/14 03:18:42;;;;;;;12.90;7.13;;;;;;;;;;5068456;28;20419;-78
2022/01/14 03:21:13;;;;;;;10.60;6.90;;;;;;;;;;5070002;28;20456;-78
2022/01/14 03:23:45;;;;;;;15.80;8.00;;;;;;;;;;5067638;28;20416;-78
2022/01/14 03:26:12;;;;;;;11.23;6.60;;;;;;;;;;5063334;28;21542;-78
2022/01/14 03:28:38;;;;;;;12.90;7.27;;;;;;;;;;5067475;28;20452;-78
2022/01/14 03:31:04;;;;;;;11.90;6.90;;;;;;;;;;5070942;28;21299;-79
2022/01/14 03:33:30;;;;;;;13.30;7.00;;;;;;;;;;5068471;28;20437;-78
2022/01/14 03:35:57;;;;;;;12.93;6.63;;;;;;;;;;5069795;28;20433;-78
2022/01/14 03:38:23;;;;;;;13.13;6.60;;;;;;;;;;5072212;28;20416;-78
2022/01/14 03:40:49;;;;;;;11.23;6.97;;;;;;;;;;5073834;28;20436;-78
2022/01/14 03:43:15;;;;;;;11.13;5.90;;;;;;;;;;5071056;28;20410;-78
2022/01/14 03:45:41;;;;;;;10.23;6.60;;;;;;;;;;5068372;28;20424;-78
2022/01/14 03:48:08;;;;;;;10.70;6.27;;;;;;;;;;5072264;28;20456;-78
2022/01/14 03:50:34;;;;;;;9.90;5.67;;;;;;;;;;5074626;28;21358;-78
2022/01/14 03:53:01;;;;;;;11.70;6.40;;;;;;;;;;5070116;28;21188;-78
2022/01/14 03:55:27;;;;;;;10.20;5.80;;;;;;;;;;5072246;28;21402;-78
2022/01/14 03:57:53;;;;;;;10.07;5.77;;;;;;;;;;5076213;28;21341;-78
2022/01/14 04:00:20;;;;;;;11.40;5.83;;;;;;;;;;5072533;28;20503;-78
2022/01/14 04:02:46;;;;;;;10.67;5.30;;;;;;;;;;5073403;28;21083;-78
2022/01/14 04:05:13;;;;;;;10.10;5.57;;;;;;;;;;5075876;28;21479;-78
2022/01/14 04:07:39;;;;;;;8.57;4.70;;;;;;;;;;5073552;28;20819;-78
2022/01/14 04:10:10;;;;;;;9.93;5.73;;;;;;;;;;5075279;28;20483;-78
2022/01/14 04:18:01;;;;;;;9.30;5.23;;;;;;;;;;5074774;28;20423;-78
2022/01/14 04:20:28;;;;;;;8.07;5.00;;;;;;;;;;5072667;28;20514;-79
2022/01/14 04:22:54;;;;;;;8.73;4.70;;;;;;;;;;5078705;28;20456;-78
2022/01/14 04:25:20;;;;;;;12.03;5.00;;;;;;;;;;5071600;28;20490;-79
2022/01/14 04:27:46;;;;;;;6.70;4.67;;;;;;;;;;5075567;28;21772;-79
2022/01/14 04:30:13;;;;;;;13.30;5.13;;;;;;;;;;5069864;28;20468;-79
2022/01/14 04:32:40;;;;;;;11.23;4.87;;;;;;;;;;5074009;28;20424;-79
2022/01/14 04:35:06;;;;;;;7.17;3.93;;;;;;;;;;5069863;28;20417;-79
2022/01/14 04:37:32;;;;;;;8.07;4.10;;;;;;;;;;5071792;28;20424;-78
2022/01/14 04:39:58;;;;;;;7.93;4.10;;;;;;;;;;5074225;28;21430;-79
2022/01/14 04:42:25;;;;;;;7.67;4.07;;;;;;;;;;5075317;28;20420;-79
2022/01/14 04:44:54;;;;;;;8.17;4.17;;;;;;;;;;5070935;28;20471;-79
2022/01/14 04:47:32;;;;;;;6.67;4.60;;;;;;;;;;5087965;28;20500;-79
2022/01/14 04:49:58;;;;;;;8.13;5.00;;;;;;;;;;5076712;28;20440;-79
2022/01/14 04:52:26;;;;;;;7.93;4.47;;;;;;;;;;5071642;28;21333;-79
2022/01/14 04:54:52;;;;;;;11.33;4.37;;;;;;;;;;5073446;28;21341;-79
2022/01/14 04:57:21;;;;;;;11.87;4.63;;;;;;;;;;5070084;28;20436;-79
2022/01/14 04:59:48;;;;;;;6.80;4.27;;;;;;;;;;5070691;28;20774;-79
2022/01/14 05:02:15;;;;;;;16.63;5.53;;;;;;;;;;5072733;28;20437;-79
2022/01/14 05:04:43;;;;;;;7.00;3.67;;;;;;;;;;5074096;28;20453;-79
2022/01/14 05:07:14;;;;;;;7.63;4.60;;;;;;;;;;5074876;28;20421;-79
2022/01/14 05:09:45;;;;;;;6.70;4.00;;;;;;;;;;5068546;28;20456;-79
2022/01/14 05:12:11;;;;;;;8.80;4.40;;;;;;;;;;5070427;28;20420;-79
2022/01/14 05:14:38;;;;;;;8.93;4.07;;;;;;;;;;5072729;28;20423;-79
2022/01/14 05:17:04;;;;;;;11.67;3.80;;;;;;;;;;5073292;28;20455;-79
2022/01/14 05:19:30;;;;;;;9.13;4.53;;;;;;;;;;5072005;28;20420;-79
2022/01/14 05:21:56;;;;;;;10.13;4.00;;;;;;;;;;5070911;28;20432;-79
2022/01/14 05:24:23;;;;;;;11.37;4.27;;;;;;;;;;5074788;28;20427;-79
2022/01/14 05:26:50;;;;;;;9.47;3.60;;;;;;;;;;5070869;28;20523;-79
2022/01/14 05:29:16;;;;;;;8.50;4.10;;;;;;;;;;5070340;28;20456;-79
2022/01/14 05:31:46;;;;;;;8.30;3.80;;;;;;;;;;5068804;28;21347;-79
2022/01/14 05:34:13;;;;;;;7.63;3.80;;;;;;;;;;5074567;28;20438;-79
2022/01/14 05:36:39;;;;;;;10.27;3.80;;;;;;;;;;5073543;28;20494;-79
2022/01/14 05:39:07;;;;;;;9.17;4.40;;;;;;;;;;5070214;28;20448;-79
2022/01/14 05:41:33;;;;;;;8.80;4.37;;;;;;;;;;5073205;28;21179;-79
2022/01/14 05:43:59;;;;;;;13.57;4.80;;;;;;;;;;5074649;28;20449;-79
2022/01/14 05:46:25;;;;;;;9.50;3.90;;;;;;;;;;5070537;28;20437;-81
2022/01/14 05:48:51;;;;;;;12.93;4.07;;;;;;;;;;5072772;28;20456;-79
2022/01/14 05:51:17;;;;;;;10.13;4.27;;;;;;;;;;5071727;28;20508;-79
2022/01/14 05:53:43;;;;;;;8.20;3.87;;;;;;;;;;5073272;28;20404;-80
2022/01/14 05:56:09;;;;;;;6.83;3.73;;;;;;;;;;5065318;28;21291;-80
2022/01/14 05:58:36;;;;;;;6.83;4.30;;;;;;;;;;5071525;28;20412;-80
2022/01/14 06:01:02;;;;;;;9.33;4.50;;;;;;;;;;5065576;28;21192;-80
2022/01/14 06:03:28;;;;;;;10.17;4.80;;;;;;;;;;5070337;28;20413;-80
2022/01/14 06:05:54;;;;;;;14.00;4.93;;;;;;;;;;5071008;28;21124;-80
2022/01/14 06:08:20;;;;;;;12.23;4.60;;;;;;;;;;5073687;28;20456;-79
2022/01/14 06:10:46;;;;;;;11.23;5.20;;;;;;;;;;5071267;28;20535;-79
2022/01/14 06:13:12;;;;;;;14.90;5.13;;;;;;;;;;5073486;28;20420;-80
2022/01/14 06:15:38;;;;;;;12.70;5.20;;;;;;;;;;5069410;28;20409;-79
2022/01/14 06:18:04;;;;;;;11.87;4.70;;;;;;;;;;5073420;28;20429;-79
2022/01/14 06:20:30;;;;;;;11.13;4.63;;;;;;;;;;5072460;28;20923;-80
2022/01/14 06:22:56;;;;;;;11.00;5.77;;;;;;;;;;5068437;28;20467;-79
2022/01/14 06:25:22;;;;;;;12.53;5.60;;;;;;;;;;5071930;28;20506;-79
2022/01/14 06:27:49;;;;;;;15.90;6.37;;;;;;;;;;5070561;28;20412;-80
2022/01/14 06:30:15;;;;;;;16.77;6.33;;;;;;;;;;5066702;28;21241;-80
2022/01/14 06:32:41;;;;;;;17.63;6.47;;;;;;;;;;5064493;28;20888;-80
2022/01/14 06:35:11;;;;;;;18.23;6.40;;;;;;;;;;5066314;28;20413;-80
2022/01/14 06:37:38;;;;;;;18.10;6.80;;;;;;;;;;5068152;28;21170;-79
2022/01/14 06:40:05;;;;;;;34.70;9.87;;;;;;;;;;5070900;28;20417;-80
2022/01/14 06:42:31;;;;;;;21.97;7.60;;;;;;;;;;5070653;28;21331;-80
2022/01/14 06:44:57;;;;;;;20.00;7.23;;;;;;;;;;5068024;28;20422;-79
2022/01/14 06:47:23;;;;;;;19.37;7.27;;;;;;;;;;5056709;28;20471;-79
2022/01/14 06:49:50;;;;;;;25.17;7.87;;;;;;;;;;5070652;28;20568;-81
2022/01/14 06:52:16;;;;;;;18.73;7.50;;;;;;;;;;5072700;28;20392;-79
2022/01/14 06:54:42;;;;;;;21.43;7.87;;;;;;;;;;5066297;28;20429;-80
2022/01/14 06:57:08;;;;;;;21.20;7.87;;;;;;;;;;5066346;28;21553;-80
2022/01/14 06:59:34;;;;;;;15.87;7.77;;;;;;;;;;5068296;28;20420;-80
2022/01/14 07:02:01;;;;;;;16.70;7.40;;;;;;;;;;5070063;28;20429;-80
2022/01/14 07:04:27;;;;;;;13.47;6.87;;;;;;;;;;5065160;28;20446;-80
2022/01/14 07:06:53;;;;;;;17.17;7.47;;;;;;;;;;5070723;28;20432;-79
2022/01/14 07:09:19;;;;;;;20.07;7.40;;;;;;;;;;5063089;28;20452;-79
2022/01/14 07:11:52;;;;;;;15.10;6.90;;;;;;;;;;5069858;28;20483;-79
2022/01/14 07:14:19;;;;;;;19.10;7.30;;;;;;;;;;5066765;28;20418;-79
2022/01/14 07:16:47;;;;;;;17.97;6.83;;;;;;;;;;5065372;28;20413;-79
2022/01/14 07:19:13;;;;;;;15.33;6.90;;;;;;;;;;5068292;28;20948;-79
2022/01/14 07:21:40;;;;;;;16.27;6.30;;;;;;;;;;5079158;28;20416;-79
2022/01/14 07:24:06;;;;;;;13.33;6.47;;;;;;;;;;5069635;28;21206;-80
2022/01/14 07:26:33;;;;;;;12.70;5.60;;;;;;;;;;5085141;27;20424;-80
2022/01/14 07:28:59;;;;;;;12.30;6.03;;;;;;;;;;5067327;28;20444;-80
2022/01/14 07:31:25;;;;;;;16.77;6.30;;;;;;;;;;5065145;28;20416;-81
2022/01/14 07:33:52;;;;;;;15.73;6.47;;;;;;;;;;5069021;28;20450;-80
2022/01/14 07:36:18;;;;;;;20.40;6.00;;;;;;;;;;5072197;28;20515;-80
2022/01/14 07:38:44;;;;;;;14.83;6.20;;;;;;;;;;5067902;28;20433;-81
2022/01/14 07:41:10;;;;;;;15.90;6.93;;;;;;;;;;5067495;28;20915;-80
2022/01/14 07:43:36;;;;;;;16.37;7.07;;;;;;;;;;5070218;28;20421;-80
2022/01/14 07:46:03;;;;;;;14.93;6.87;;;;;;;;;;5067297;28;20413;-80
2022/01/14 07:48:29;;;;;;;12.97;6.07;;;;;;;;;;5074093;28;20447;-80
2022/01/14 07:50:55;;;;;;;10.67;6.20;;;;;;;;;;5070364;28;20418;-80
2022/01/14 07:53:21;;;;;;;14.37;7.10;;;;;;;;;;5066202;28;20488;-80
2022/01/14 07:55:48;;;;;;;17.60;7.00;;;;;;;;;;5067699;28;20936;-80
2022/01/14 07:58:14;;;;;;;13.57;6.77;;;;;;;;;;5069646;28;21090;-80
2022/01/14 08:00:40;;;;;;;12.87;6.43;;;;;;;;;;5068253;28;20409;-80
2022/01/14 08:03:07;;;;;;;16.07;7.00;;;;;;;;;;5074192;28;20413;-80
2022/01/14 08:05:34;;;;;;;13.27;6.27;;;;;;;;;;5072645;28;20488;-80
2022/01/14 08:08:04;;;;;;;15.83;6.37;;;;;;;;;;5067608;28;20409;-80
2022/01/14 08:10:31;;;;;;;13.70;6.33;;;;;;;;;;5069989;28;20443;-80
2022/01/14 08:12:57;;;;;;;11.73;6.33;;;;;;;;;;5067139;28;20558;-80
2022/01/14 08:15:23;;;;;;;10.27;5.73;;;;;;;;;;5069175;28;20416;-80
2022/01/14 08:17:49;;;;;;;12.80;5.97;;;;;;;;;;5067934;28;20409;-80
2022/01/14 08:20:16;;;;;;;10.57;6.27;;;;;;;;;;5067267;28;21359;-80
2022/01/14 08:22:42;;;;;;;10.83;5.70;;;;;;;;;;5070236;28;21129;-80
2022/01/14 08:25:09;;;;;;;13.63;6.23;;;;;;;;;;5066092;28;20470;-80
2022/01/14 08:27:35;;;;;;;14.03;6.70;;;;;;;;;;5070448;28;20417;-80
2022/01/14 08:30:02;;;;;;;12.07;5.90;;;;;;;;;;5069573;28;21308;-80
2022/01/14 08:32:28;;;;;;;16.80;6.33;;;;;;;;;;5063060;28;21050;-80
2022/01/14 08:34:54;;;;;;;11.33;6.10;;;;;;;;;;5068529;28;20427;-80
2022/01/14 08:37:20;;;;;;;11.43;6.57;;;;;;;;;;5068611;28;20489;-80
2022/01/14 08:39:46;;;;;;;11.97;6.37;;;;;;;;;;5072732;28;20416;-80
2022/01/14 08:42:13;;;;;;;11.17;6.10;;;;;;;;;;5070991;28;20436;-80
2022/01/14 08:44:40;;;;;;;12.20;6.07;;;;;;;;;;5084133;27;20431;-80
2022/01/14 08:47:10;;;;;;;14.60;5.60;;;;;;;;;;5072205;28;20425;-80
2022/01/14 08:49:40;;;;;;;12.67;5.53;;;;;;;;;;5069866;28;20441;-80
2022/01/14 08:52:06;;;;;;;12.70;5.50;;;;;;;;;;5069087;28;20988;-80
2022/01/14 08:54:32;;;;;;;13.33;6.17;;;;;;;;;;5070486;28;20432;-80
2022/01/14 08:56:58;;;;;;;11.80;5.77;;;;;;;;;;5071418;28;20413;-80
2022/01/14 08:59:25;;;;;;;12.77;5.83;;;;;;;;;;5074046;28;20509;-80
2022/01/14 09:01:51;;;;;;;14.13;6.40;;;;;;;;;;5070879;28;20789;-80
2022/01/14 09:04:17;;;;;;;12.97;6.03;;;;;;;;;;5071555;28;20444;-80
2022/01/14 09:06:43;;;;;;;11.43;5.73;;;;;;;;;;5070579;28;20429;-80
2022/01/14 09:09:09;;;;;;;9.03;5.00;;;;;;;;;;5067364;28;20439;-80
2022/01/14 09:11:35;;;;;;;12.93;6.10;;;;;;;;;;5071481;28;20424;-80
2022/01/14 09:14:01;;;;;;;15.13;6.30;;;;;;;;;;5071743;28;20936;-81
2022/01/14 09:16:27;;;;;;;14.93;6.10;;;;;;;;;;5069595;28;20417;-80
2022/01/14 09:18:53;;;;;;;15.10;6.10;;;;;;;;;;5073671;28;21283;-80
2022/01/14 09:21:19;;;;;;;16.43;5.70;;;;;;;;;;5069372;28;20417;-80
2022/01/14 09:23:57;;;;;;;10.47;5.63;;;;;;;;;;5071344;28;21586;-81
2022/01/14 09:26:23;;;;;;;11.80;6.00;;;;;;;;;;5072430;28;20417;-81
2022/01/14 09:28:49;;;;;;;12.03;5.30;;;;;;;;;;5068099;28;20503;-80
2022/01/14 09:31:16;;;;;;;11.93;5.20;;;;;;;;;;5070410;28;20424;-80
2022/01/14 09:33:42;;;;;;;13.27;5.87;;;;;;;;;;5068316;28;20516;-80
2022/01/14 09:36:08;;;;;;;15.57;5.60;;;;;;;;;;5066116;28;20544;-80
2022/01/14 09:38:34;;;;;;;10.93;5.43;;;;;;;;;;5066735;28;21256;-80
2022/01/14 09:41:01;;;;;;;11.20;5.93;;;;;;;;;;5074040;28;20420;-80
2022/01/14 09:43:27;;;;;;;12.30;5.17;;;;;;;;;;5066707;28;20864;-80
2022/01/14 09:45:53;;;;;;;9.77;5.33;;;;;;;;;;5068740;28;20431;-80
2022/01/14 09:48:20;;;;;;;9.30;5.37;;;;;;;;;;5066680;28;20412;-80
2022/01/14 09:50:49;;;;;;;9.67;4.63;;;;;;;;;;5071710;28;20431;-79
2022/01/14 09:53:15;;;;;;;10.53;5.10;;;;;;;;;;5072024;28;20428;-79
2022/01/14 09:55:42;;;;;;;10.37;4.33;;;;;;;;;;5063557;28;20490;-79
2022/01/14 09:58:08;;;;;;;9.37;4.80;;;;;;;;;;5068123;28;21257;-79
2022/01/14 10:00:35;;;;;;;11.87;5.13;;;;;;;;;;5068109;28;20441;-79
2022/01/14 10:03:01;;;;;;;8.80;5.10;;;;;;;;;;5065071;28;20429;-79
2022/01/14 10:05:35;;;;;;;10.10;4.53;;;;;;;;;;5064370;28;20437;-79
2022/01/14 10:08:14;;;;;;;11.03;4.73;;;;;;;;;;5068193;28;20420;-79
2022/01/14 10:10:46;;;;;;;8.37;4.70;;;;;;;;;;5069452;28;20477;-79
2022/01/14 10:13:16;;;;;;;8.37;4.60;;;;;;;;;;5070488;28;20412;-80
2022/01/14 10:15:43;;;;;;;12.03;4.93;;;;;;;;;;5065305;28;20437;-80
2022/01/14 10:18:10;;;;;;;11.00;5.17;;;;;;;;;;5068695;28;20402;-80
2022/01/14 10:20:37;;;;;;;8.07;5.00;;;;;;;;;;5075786;28;20415;-80
2022/01/14 10:23:03;;;;;;;13.57;5.37;;;;;;;;;;5068553;28;20421;-80
2022/01/14 10:25:29;;;;;;;10.03;5.20;;;;;;;;;;5067779;28;20438;-80
2022/01/14 10:27:56;;;;;;;8.47;4.90;;;;;;;;;;5064135;28;21758;-80
2022/01/14 10:30:31;;;;;;;11.73;5.57;;;;;;;;;;5066552;28;20441;-80
2022/01/14 10:33:08;;;;;;;12.10;5.73;;;;;;;;;;5065045;28;20455;-80
2022/01/14 10:35:37;;;;;;;8.50;5.20;;;;;;;;;;5064047;28;20429;-80
2022/01/14 10:38:04;;;;;;;9.87;5.63;;;;;;;;;;5070510;28;20431;-80
2022/01/14 10:40:32;;;;;;;9.80;5.40;;;;;;;;;;5072203;28;20543;-80
2022/01/14 10:43:24;;;;;;;16.47;6.13;;;;;;;;;;5065939;28;20428;-80
2022/01/14 10:45:51;;;;;;;12.03;5.80;;;;;;;;;;5063039;28;20440;-80
2022/01/14 10:48:18;;;;;;;10.73;5.90;;;;;;;;;;5069395;28;20428;-81
2022/01/14 10:50:48;;;;;;;10.50;5.30;;;;;;;;;;5068362;28;20776;-81
2022/01/14 10:53:16;;;;;;;12.03;6.00;;;;;;;;;;5068481;28;21371;-81
2022/01/14 10:55:45;;;;;;;10.37;5.60;;;;;;;;;;5070735;28;20431;-81
2022/01/14 10:58:13;;;;;;;12.60;5.63;;;;;;;;;;5071132;28;21082;-81
2022/01/14 11:00:43;;;;;;;9.97;6.03;;;;;;;;;;5065150;28;20602;-81
2022/01/14 11:03:10;;;;;;;10.40;5.80;;;;;;;;;;5070282;28;20416;-80
2022/01/14 11:05:36;;;;;;;15.93;6.27;;;;;;;;;;5069980;28;20425;-81
2022/01/14 11:08:03;;;;;;;10.17;5.50;;;;;;;;;;5064385;28;20884;-81
2022/01/14 11:10:32;;;;;;;12.13;5.97;;;;;;;;;;5063181;28;21453;-81
2022/01/14 11:13:00;;;;;;;9.63;5.47;;;;;;;;;;5074599;28;21034;-81
2022/01/14 11:15:30;;;;;;;15.77;6.03;;;;;;;;;;5069153;28;20424;-83
2022/01/14 11:17:59;;;;;;;11.03;5.70;;;;;;;;;;5074129;28;21321;-83
2022/01/14 11:20:30;;;;;;;10.17;5.60;;;;;;;;;;5070463;28;20232;-82
2022/01/14 11:23:15;;;;;;;11.00;6.20;;;;;;;;;;5068559;28;20443;-83
2022/01/14 11:26:00;;;;;;;12.30;7.10;;;;;;;;;;5085958;28;20424;-84
2022/01/14 11:28:31;;;;;;;13.07;6.33;;;;;;;;;;5066923;28;20425;-83
2022/01/14 11:30:57;;;;;;;12.83;7.30;;;;;;;;;;5067012;28;20645;-84
2022/01/14 11:33:43;;;;;;;14.37;7.03;;;;;;;;;;5065035;28;20533;-84
2022/01/14 11:36:09;;;;;;;15.63;7.60;;;;;;;;;;5071733;28;20471;-84
2022/01/14 11:38:40;;;;;;;14.37;8.07;;;;;;;;;;5070250;28;20428;-84
2022/01/14 11:41:07;;;;;;;13.53;7.63;;;;;;;;;;5067122;28;20519;-84
2022/01/14 11:43:40;;;;;;;18.37;7.57;;;;;;;;;;5071288;28;20428;-84
2022/01/14 11:46:22;;;;;;;12.20;7.60;;;;;;;;;;5070432;28;21209;-84
2022/01/14 11:48:51;;;;;;;14.07;8.60;;;;;;;;;;5071152;28;20437;-83
2022/01/14 11:51:20;;;;;;;18.77;9.07;;;;;;;;;;5070397;28;20417;-83
2022/01/14 11:54:04;;;;;;;16.20;8.57;;;;;;;;;;5071027;28;20176;-83
2022/01/14 11:56:31;;;;;;;14.10;8.40;;;;;;;;;;5072362;28;20863;-83
2022/01/14 11:59:21;;;;;;;13.87;8.03;;;;;;;;;;5072547;28;20420;-83
2022/01/14 12:05:17;;;;;;;13.07;7.50;;;;;;;;;;5069327;28;21176;-83
2022/01/14 12:08:19;;;;;;;12.97;6.93;;;;;;;;;;5081741;28;20166;-84
2022/01/14 12:11:13;;;;;;;13.27;7.33;;;;;;;;;;5072118;28;21286;-83
2022/01/14 12:13:48;;;;;;;10.13;6.63;;;;;;;;;;5072327;28;20199;-83
2022/01/14 12:19:08;;;;;;;;;;;;;;;;;;;;;
2022/01/14 12:22:00;;;;;;;11.13;6.80;;;;;;;;;;5073713;28;20188;-83
2022/01/14 12:25:03;;;;;;;;;;;;;;;;;;;;;
2022/01/14 12:27:42;;;;;;;10.83;6.83;;;;;;;;;;5070803;28;20178;-84
2022/01/14 12:30:30;;;;;;;10.63;7.00;;;;;;;;;;5074278;28;20875;-83
2022/01/14 12:33:41;;;;;;;8.87;6.30;;;;;;;;;;5070842;28;20219;-83
2022/01/14 12:36:21;;;;;;;12.70;6.67;;;;;;;;;;5076552;28;20222;-81
2022/01/14 12:38:55;;;;;;;9.43;6.07;;;;;;;;;;5070921;28;20183;-82
2022/01/14 12:41:39;;;;;;;10.53;6.40;;;;;;;;;;5070895;28;20279;-82
2022/01/14 12:44:14;;;;;;;10.33;6.17;;;;;;;;;;5073032;28;20172;-82
2022/01/14 12:49:56;;;;;;;9.03;5.57;;;;;;;;;;5055914;28;20235;-81
2022/01/14 12:55:27;;;;;;;10.17;5.77;;;;;;;;;;5064812;28;20522;-82
2022/01/14 12:57:57;;;;;;;8.97;6.20;;;;;;;;;;5073888;28;21226;-82
2022/01/14 13:00:23;;;;;;;8.47;5.30;;;;;;;;;;5069808;28;20179;-82
2022/01/14 13:02:49;;;;;;;8.03;5.67;;;;;;;;;;5070664;28;20171;-82
2022/01/14 13:05:24;;;;;;;10.63;6.07;;;;;;;;;;5074894;28;20189;-81
2022/01/14 13:07:50;;;;;;;9.20;5.43;;;;;;;;;;5070654;28;20280;-82
2022/01/14 13:13:40;;;;;;;12.73;6.33;;;;;;;;;;5067761;28;20175;-82
2022/01/14 13:16:06;;;;;;;8.00;5.63;;;;;;;;;;5068328;28;20198;-82
2022/01/14 13:19:04;;;;;;;;;;;;;;;;;;;;;
2022/01/14 13:21:31;;;;;;;10.03;6.27;;;;;;;;;;5069862;28;20185;-82
2022/01/14 13:23:57;;;;;;;12.33;6.20;;;;;;;;;;5074588;28;20201;-83
2022/01/14 13:26:29;;;;;;;9.80;5.57;;;;;;;;;;5064986;28;21028;-82
2022/01/14 13:28:57;;;;;;;10.97;6.00;;;;;;;;;;5071967;28;20199;-82
2022/01/14 13:31:39;;;;;;;8.70;5.63;;;;;;;;;;5083960;28;20505;-82
2022/01/14 13:34:05;;;;;;;10.13;5.33;;;;;;;;;;5073045;28;20255;-82
2022/01/14 13:36:31;;;;;;;11.93;5.50;;;;;;;;;;5067388;28;20264;-82
2022/01/14 13:39:18;;;;;;;11.97;5.87;;;;;;;;;;5069200;28;20186;-83
2022/01/14 13:41:47;;;;;;;8.53;5.70;;;;;;;;;;5067089;28;20172;-82
2022/01/14 13:44:31;;;;;;;;;;;;;;;;;;;;;
2022/01/14 13:47:06;;;;;;;9.47;6.00;;;;;;;;;;5068048;28;20180;-83
2022/01/14 13:49:33;;;;;;;7.87;5.57;;;;;;;;;;5072548;28;20308;-83
2022/01/14 13:52:18;;;;;;;9.83;6.03;;;;;;;;;;5075389;28;20248;-83
2022/01/14 13:57:48;;;;;;;11.33;6.10;;;;;;;;;;5069273;28;20177;-84
2022/01/14 14:00:15;;;;;;;12.47;6.60;;;;;;;;;;5072936;28;20183;-81
2022/01/14 14:02:52;;;;;;;10.27;6.43;;;;;;;;;;5074755;28;20178;-81
2022/01/14 14:05:37;;;;;;;9.50;6.10;;;;;;;;;;5066457;28;20222;-82
2022/01/14 14:16:45;;;;;;;8.07;5.63;;;;;;;;;;5070932;28;21053;-83
2022/01/14 14:19:23;;;;;;;8.03;5.63;;;;;;;;;;5065092;28;20305;-83
2022/01/14 14:22:18;;;;;;;10.90;5.80;;;;;;;;;;5066865;28;20278;-83
2022/01/14 14:25:01;;;;;;;9.80;6.10;;;;;;;;;;4978764;28;20367;-83
2022/01/14 14:27:27;;;;;;;9.00;6.00;;;;;;;;;;5068511;28;20172;-83
2022/01/14 14:30:08;;;;;;;13.93;6.17;;;;;;;;;;5070278;28;20339;-82
2022/01/14 14:32:36;;;;;;;10.37;5.83;;;;;;;;;;5067509;28;20201;-82
2022/01/14 14:35:05;;;;;;;11.67;6.13;;;;;;;;;;5065550;28;20163;-82
2022/01/14 14:37:34;;;;;;;11.53;6.27;;;;;;;;;;5063578;28;20981;-82
2022/01/14 14:40:04;;;;;;;10.40;6.13;;;;;;;;;;5056831;28;21139;-82
2022/01/14 14:42:30;;;;;;;9.33;6.20;;;;;;;;;;5064207;28;20200;-82
2022/01/14 14:44:59;;;;;;;12.83;6.13;;;;;;;;;;5066358;28;20946;-82
2022/01/14 14:47:26;;;;;;;12.30;6.47;;;;;;;;;;5067934;28;20182;-82
2022/01/14 14:49:52;;;;;;;10.67;5.70;;;;;;;;;;5056203;28;20745;-82
2022/01/14 14:52:20;;;;;;;9.50;6.60;;;;;;;;;;5071122;28;20626;-82
2022/01/14 14:54:46;;;;;;;11.00;6.07;;;;;;;;;;5066662;28;20175;-82
2022/01/14 14:57:12;;;;;;;11.67;6.43;;;;;;;;;;5072317;28;20182;-82
2022/01/14 14:59:39;;;;;;;13.07;6.77;;;;;;;;;;5070859;28;20246;-82
2022/01/14 15:02:06;;;;;;;40.37;27.40;;;;;;;;;;5065909;28;20183;-82
2022/01/14 15:04:34;;;;;;;17.17;10.90;;;;;;;;;;5064517;28;21052;-82
2022/01/14 15:07:00;;;;;;;19.70;8.63;;;;;;;;;;5067095;28;20179;-82
2022/01/14 15:09:27;;;;;;;16.77;7.33;;;;;;;;;;5072953;28;20197;-82
2022/01/14 15:11:56;;;;;;;17.43;7.63;;;;;;;;;;5066961;28;20183;-82
2022/01/14 15:14:23;;;;;;;15.93;8.13;;;;;;;;;;5071054;28;20159;-82
2022/01/14 15:19:36;;;;;;;17.50;9.07;;;;;;;;;;5068313;28;20202;-82
2022/01/14 15:22:02;;;;;;;22.23;11.87;;;;;;;;;;5068466;28;20986;-82
2022/01/14 15:24:29;;;;;;;21.73;9.60;;;;;;;;;;5066370;28;20175;-82
2022/01/14 15:26:55;;;;;;;16.37;8.63;;;;;;;;;;5069108;28;20213;-82
2022/01/14 15:29:21;;;;;;;19.07;9.97;;;;;;;;;;5069459;28;20240;-83
2022/01/14 15:31:48;;;;;;;14.07;8.60;;;;;;;;;;5064341;28;20309;-83
2022/01/14 15:34:14;;;;;;;36.23;23.53;;;;;;;;;;5067776;28;20263;-83
2022/01/14 15:36:41;;;;;;;17.60;8.67;;;;;;;;;;5066332;28;20186;-83
2022/01/14 15:39:08;;;;;;;17.50;8.53;;;;;;;;;;5069572;28;20174;-83
2022/01/14 15:41:36;;;;;;;21.10;8.70;;;;;;;;;;5065283;28;20181;-83